createdAt,value
2022-12-20T00:01:33.355Z,85.51
2022-12-20T00:04:02.614Z,84.10
2022-12-20T00:06:30.088Z,85.07
2022-12-20T00:08:59.739Z,85.77
2022-12-20T00:11:28.257Z,85.02
2022-12-20T00:13:55.076Z,84.16
2022-12-20T00:16:24.862Z,84.95
2022-12-20T00:18:53.753Z,85.40
2022-12-20T00:21:21.235Z,85.10
2022-12-20T00:23:48.265Z,85.18
2022-12-20T00:26:21.687Z,86.54
2022-12-20T00:28:48.934Z,85.34
2022-12-20T00:31:18.909Z,84.69
2022-12-20T00:33:47.824Z,85.34
2022-12-20T00:36:15.763Z,84.43
2022-12-20T00:38:45.769Z,85.61
2022-12-20T00:41:18.898Z,85.34
2022-12-20T00:43:46.263Z,85.29
2022-12-20T00:46:14.949Z,86.24
2022-12-20T00:48:42.488Z,85.91
2022-12-20T00:51:12.346Z,86.12
2022-12-20T00:53:39.920Z,86.50
2022-12-20T00:56:07.531Z,86.66
2022-12-20T00:58:36.431Z,86.67
2022-12-20T01:01:04.987Z,86.09
2022-12-20T01:03:32.233Z,86.92
2022-12-20T01:06:01.653Z,86.14
2022-12-20T01:08:29.566Z,85.43
2022-12-20T01:11:01.713Z,86.31
2022-12-20T01:13:29.594Z,85.32
2022-12-20T01:15:57.144Z,85.68
2022-12-20T01:18:23.984Z,85.30
2022-12-20T01:21:01.378Z,85.51
2022-12-20T01:23:28.347Z,84.96
2022-12-20T01:25:58.262Z,84.73
2022-12-20T01:28:25.033Z,83.82
2022-12-20T01:30:52.105Z,85.18
2022-12-20T01:33:18.915Z,84.30
2022-12-20T01:36:04.006Z,83.30
2022-12-20T01:38:32.424Z,83.81
2022-12-20T01:41:00.345Z,84.56
2022-12-20T01:43:46.539Z,83.28
2022-12-20T01:46:13.818Z,83.54
2022-12-20T01:48:42.740Z,83.34
2022-12-20T01:51:10.239Z,84.00
2022-12-20T01:53:37.867Z,83.36
2022-12-20T01:56:07.412Z,84.09
2022-12-20T01:58:37.735Z,84.97
2022-12-20T02:01:05.028Z,84.91
2022-12-20T02:03:32.698Z,85.03
2022-12-20T02:06:14.631Z,85.50
2022-12-20T02:08:41.765Z,85.50
2022-12-20T02:11:31.609Z,85.26
2022-12-20T02:14:32.126Z,86.16
2022-12-20T02:17:13.120Z,85.95
2022-12-20T02:20:07.704Z,85.54
2022-12-20T02:22:34.809Z,85.59
2022-12-20T02:25:18.495Z,84.67
2022-12-20T02:28:19.966Z,84.86
2022-12-20T02:30:50.013Z,84.71
2022-12-20T02:33:20.229Z,83.54
2022-12-20T02:35:47.082Z,84.44
2022-12-20T02:38:35.577Z,84.06
2022-12-20T02:41:12.289Z,84.70
2022-12-20T02:44:02.954Z,84.14
2022-12-20T02:46:31.063Z,85.17
2022-12-20T02:49:02.568Z,85.41
2022-12-20T02:51:32.587Z,85.35
2022-12-20T02:54:00.776Z,84.97
2022-12-20T02:56:43.255Z,85.98
2022-12-20T02:59:24.300Z,86.13
2022-12-20T03:01:55.265Z,85.73
2022-12-20T03:04:29.060Z,85.98
2022-12-20T03:07:00.829Z,86.09
2022-12-20T03:09:30.332Z,85.75
2022-12-20T03:11:57.250Z,85.61
2022-12-20T03:14:24.884Z,85.37
2022-12-20T03:16:52.499Z,86.03
2022-12-20T03:19:20.051Z,85.78
2022-12-20T03:21:47.142Z,85.80
2022-12-20T03:24:14.339Z,86.22
2022-12-20T03:26:41.670Z,86.00
2022-12-20T03:29:09.274Z,88.25
2022-12-20T03:31:36.753Z,87.83
2022-12-20T03:34:04.863Z,86.92
2022-12-20T03:36:32.213Z,87.91
2022-12-20T03:38:59.436Z,87.81
2022-12-20T03:41:26.928Z,88.19
2022-12-20T03:43:54.316Z,87.99
2022-12-20T03:46:21.389Z,88.85
2022-12-20T03:48:48.527Z,88.71
2022-12-20T03:51:15.357Z,89.44
2022-12-20T03:53:42.416Z,88.67
2022-12-20T03:56:10.117Z,88.80
2022-12-20T03:58:37.190Z,89.16
2022-12-20T04:01:24.004Z,88.64
2022-12-20T04:03:51.377Z,90.44
2022-12-20T04:06:19.017Z,89.79
2022-12-20T04:08:46.479Z,90.97
2022-12-20T04:11:16.408Z,91.06
2022-12-20T04:13:51.444Z,92.73
2022-12-20T04:16:29.741Z,94.94
2022-12-20T04:18:57.425Z,95.91
2022-12-20T04:21:27.504Z,95.75
2022-12-20T04:23:54.979Z,96.26
2022-12-20T04:26:22.056Z,96.71
2022-12-20T04:28:49.334Z,98.70
2022-12-20T04:31:20.017Z,99.08
2022-12-20T04:33:50.860Z,100.00
2022-12-20T04:36:17.852Z,100.00
2022-12-20T04:38:45.097Z,100.00
2022-12-20T04:41:22.377Z,100.00
2022-12-20T04:43:54.509Z,100.00
2022-12-20T04:46:23.001Z,100.00
2022-12-20T04:48:59.253Z,100.00
2022-12-20T04:51:27.915Z,100.00
2022-12-20T04:53:55.566Z,100.00
2022-12-20T04:56:29.187Z,100.00
2022-12-20T04:58:58.106Z,100.00
2022-12-20T05:01:25.169Z,100.00
2022-12-20T05:03:53.191Z,100.00
2022-12-20T05:06:20.120Z,100.00
2022-12-20T05:08:47.571Z,100.00
2022-12-20T05:11:14.508Z,100.00
2022-12-20T05:13:42.046Z,100.00
2022-12-20T05:16:09.021Z,100.00
2022-12-20T05:18:36.193Z,100.00
2022-12-20T05:21:22.044Z,100.00
2022-12-20T05:24:07.963Z,100.00
2022-12-20T05:26:37.910Z,100.00
2022-12-20T05:29:06.191Z,100.00
2022-12-20T05:31:33.502Z,100.00
2022-12-20T05:34:00.831Z,100.00
2022-12-20T05:36:28.074Z,100.00
2022-12-20T05:39:00.074Z,100.00
2022-12-20T05:41:28.723Z,100.00
2022-12-20T05:43:55.821Z,100.00
2022-12-20T05:46:22.681Z,100.00
2022-12-20T05:48:49.791Z,100.00
2022-12-20T05:51:16.635Z,100.00
2022-12-20T05:53:43.759Z,100.00
2022-12-20T05:56:10.934Z,100.00
2022-12-20T05:58:38.236Z,100.00
2022-12-20T06:01:07.510Z,100.00
2022-12-20T06:03:34.961Z,100.00
2022-12-20T06:06:02.105Z,100.00
2022-12-20T06:08:29.347Z,100.00
2022-12-20T06:10:56.740Z,100.00
2022-12-20T06:13:23.856Z,100.00
2022-12-20T06:15:50.770Z,100.00
2022-12-20T06:18:17.863Z,100.00
2022-12-20T06:20:50.578Z,100.00
2022-12-20T06:23:18.373Z,99.15
2022-12-20T06:25:45.194Z,99.68
2022-12-20T06:28:12.743Z,98.43
2022-12-20T06:30:39.527Z,98.44
2022-12-20T06:33:06.617Z,98.27
2022-12-20T06:35:33.430Z,97.83
2022-12-20T06:38:00.588Z,97.27
2022-12-20T06:40:27.413Z,97.64
2022-12-20T06:42:54.582Z,98.47
2022-12-20T06:45:21.355Z,97.89
2022-12-20T06:47:48.461Z,97.73
2022-12-20T06:50:15.321Z,96.86
2022-12-20T06:52:42.411Z,96.84
2022-12-20T06:55:10.383Z,95.16
2022-12-20T06:57:37.638Z,95.00
2022-12-20T07:00:05.333Z,95.14
2022-12-20T07:02:32.539Z,94.09
2022-12-20T07:04:59.538Z,94.16
2022-12-20T07:07:26.761Z,93.68
2022-12-20T07:09:53.667Z,93.60
2022-12-20T07:12:20.779Z,93.31
2022-12-20T07:14:47.615Z,93.43
2022-12-20T07:17:14.785Z,92.85
2022-12-20T07:19:48.659Z,92.79
2022-12-20T07:22:17.856Z,92.42
2022-12-20T07:24:45.591Z,92.41
2022-12-20T07:27:12.694Z,92.04
2022-12-20T07:29:42.121Z,92.22
2022-12-20T07:32:09.757Z,91.86
2022-12-20T07:34:37.533Z,92.22
2022-12-20T07:37:04.723Z,92.24
2022-12-20T07:39:31.530Z,92.04
2022-12-20T07:41:58.726Z,90.87
2022-12-20T07:44:25.638Z,91.16
2022-12-20T07:46:52.752Z,89.44
2022-12-20T07:49:19.580Z,89.57
2022-12-20T07:51:51.428Z,89.58
2022-12-20T07:54:22.526Z,88.55
2022-12-20T07:56:55.025Z,88.88
2022-12-20T07:59:28.044Z,87.72
2022-12-20T08:02:00.902Z,85.97
2022-12-20T08:04:31.528Z,84.88
2022-12-20T08:07:01.394Z,84.09
2022-12-20T08:09:31.466Z,84.20
2022-12-20T08:11:59.355Z,84.93
2022-12-20T08:14:26.436Z,85.60
2022-12-20T08:16:54.022Z,85.34
2022-12-20T08:19:21.915Z,85.21
2022-12-20T08:21:51.390Z,85.65
2022-12-20T08:24:18.225Z,85.80
2022-12-20T08:26:45.367Z,84.44
2022-12-20T08:29:12.124Z,84.25
2022-12-20T08:31:45.822Z,83.25
2022-12-20T08:34:16.728Z,82.58
2022-12-20T08:36:43.936Z,83.77
2022-12-20T08:39:11.653Z,81.63
2022-12-20T08:41:39.370Z,80.74
2022-12-20T08:44:06.977Z,79.57
2022-12-20T08:46:34.195Z,79.78
2022-12-20T08:49:01.119Z,78.48
2022-12-20T08:51:29.375Z,77.89
2022-12-20T08:53:56.430Z,78.88
2022-12-20T08:56:23.983Z,78.48
2022-12-20T08:58:50.780Z,79.89
2022-12-20T09:01:20.703Z,78.39
2022-12-20T09:03:48.920Z,78.69
2022-12-20T09:06:21.571Z,77.40
2022-12-20T09:08:49.001Z,79.61
2022-12-20T09:11:16.045Z,78.31
2022-12-20T09:13:45.511Z,78.02
2022-12-20T09:16:18.217Z,78.10
2022-12-20T09:18:49.846Z,76.35
2022-12-20T09:21:17.281Z,76.78
2022-12-20T09:23:44.210Z,78.55
2022-12-20T09:26:15.435Z,78.60
2022-12-20T09:28:43.654Z,80.16
2022-12-20T09:31:14.070Z,80.17
2022-12-20T09:33:41.710Z,79.26
2022-12-20T09:36:20.148Z,79.52
2022-12-20T09:38:47.889Z,79.96
2022-12-20T09:41:38.352Z,79.14
2022-12-20T09:44:16.488Z,78.74
2022-12-20T09:46:45.672Z,80.05
2022-12-20T09:49:19.195Z,77.92
2022-12-20T09:52:12.551Z,79.47
2022-12-20T09:54:57.965Z,76.26
2022-12-20T09:57:25.091Z,75.05
2022-12-20T09:59:52.001Z,72.68
2022-12-20T10:05:23.257Z,69.16
2022-12-20T10:08:02.557Z,68.45
2022-12-20T10:10:29.372Z,69.86
2022-12-20T10:13:16.785Z,71.55
2022-12-20T10:15:54.506Z,72.59
2022-12-20T10:18:39.980Z,71.24
2022-12-20T10:21:16.148Z,70.35
2022-12-20T10:23:54.293Z,68.25
2022-12-20T10:26:23.045Z,69.61
2022-12-20T10:28:54.242Z,69.88
2022-12-20T10:31:22.267Z,71.29
2022-12-20T10:33:49.486Z,71.46
2022-12-20T10:36:27.122Z,70.52
2022-12-20T10:39:00.193Z,72.10
2022-12-20T10:41:33.774Z,71.65
2022-12-20T10:44:17.167Z,70.58
2022-12-20T10:46:56.017Z,71.13
2022-12-20T10:49:23.368Z,70.36
2022-12-20T10:52:01.904Z,70.80
2022-12-20T10:54:30.518Z,70.70
2022-12-20T10:57:00.391Z,71.08
2022-12-20T10:59:37.013Z,69.39
2022-12-20T11:02:22.331Z,68.96
2022-12-20T11:05:01.229Z,70.43
2022-12-20T11:07:33.789Z,71.04
2022-12-20T11:10:23.451Z,70.12
2022-12-20T11:12:58.336Z,71.67
2022-12-20T11:15:31.645Z,72.57
2022-12-20T11:18:06.679Z,72.41
2022-12-20T11:20:58.705Z,73.60
2022-12-20T11:23:28.433Z,74.46
2022-12-20T11:26:12.366Z,73.95
2022-12-20T11:28:57.852Z,73.60
2022-12-20T11:31:47.927Z,72.07
2022-12-20T11:34:46.970Z,71.47
2022-12-20T11:37:17.081Z,71.28
2022-12-20T11:39:59.749Z,70.50
2022-12-20T11:42:37.023Z,69.17
2022-12-20T11:45:39.647Z,69.28
2022-12-20T11:48:48.304Z,68.42
2022-12-20T11:51:43.649Z,67.90
2022-12-20T11:54:17.633Z,68.91
2022-12-20T11:56:47.266Z,70.84
2022-12-20T11:59:28.087Z,70.38
2022-12-20T12:02:05.784Z,70.97
2022-12-20T12:04:40.804Z,72.84
2022-12-20T12:07:17.077Z,72.40
2022-12-20T12:10:00.769Z,73.44
2022-12-20T12:12:36.845Z,72.73
2022-12-20T12:15:42.635Z,72.23
2022-12-20T12:18:22.381Z,71.61
2022-12-20T12:21:11.137Z,72.14
2022-12-20T12:23:56.538Z,71.83
2022-12-20T12:26:29.863Z,69.05
2022-12-20T12:29:01.698Z,68.49
2022-12-20T12:31:37.286Z,68.48
2022-12-20T12:34:10.011Z,66.92
2022-12-20T12:37:14.537Z,66.95
2022-12-20T12:40:03.194Z,68.12
2022-12-20T12:42:48.868Z,69.62
2022-12-20T12:45:28.094Z,70.45
2022-12-20T12:48:02.886Z,72.34
2022-12-20T12:50:35.311Z,73.14
2022-12-20T12:53:27.469Z,74.06
2022-12-20T12:56:12.844Z,74.75
2022-12-20T12:58:48.859Z,74.56
2022-12-20T13:01:50.481Z,74.56
2022-12-20T13:04:20.904Z,75.76
2022-12-20T13:06:47.807Z,74.63
2022-12-20T13:09:20.830Z,74.53
2022-12-20T13:11:52.313Z,75.55
2022-12-20T13:14:27.738Z,75.59
2022-12-20T13:17:19.353Z,75.80
2022-12-20T13:19:53.778Z,74.89
2022-12-20T13:22:25.608Z,74.78
2022-12-20T13:25:00.489Z,75.56
2022-12-20T13:27:27.378Z,75.55
2022-12-20T13:30:13.520Z,75.25
2022-12-20T13:33:03.059Z,75.45
2022-12-20T13:35:32.929Z,76.07
2022-12-20T13:38:13.208Z,77.12
2022-12-20T13:40:48.054Z,77.11
2022-12-20T13:43:20.937Z,76.74
2022-12-20T13:45:51.796Z,76.36
2022-12-20T13:48:46.506Z,75.82
2022-12-20T13:51:19.127Z,76.78
2022-12-20T13:54:03.545Z,75.39
2022-12-20T13:56:48.219Z,76.50
2022-12-20T13:59:29.258Z,76.25
2022-12-20T14:02:03.534Z,76.70
2022-12-20T14:04:43.077Z,76.50
2022-12-20T14:07:16.404Z,77.00
2022-12-20T14:09:46.485Z,76.95
2022-12-20T14:12:24.770Z,76.63
2022-12-20T14:14:55.088Z,76.57
2022-12-20T14:17:33.320Z,78.29
2022-12-20T14:20:12.245Z,76.80
2022-12-20T14:23:04.323Z,76.60
2022-12-20T14:25:34.828Z,76.58
2022-12-20T14:28:03.455Z,76.99
2022-12-20T14:30:41.550Z,76.99
2022-12-20T14:33:21.064Z,76.95
2022-12-20T14:35:50.013Z,77.21
2022-12-20T14:38:23.555Z,76.92
2022-12-20T14:40:53.996Z,77.71
2022-12-20T14:43:35.222Z,77.94
2022-12-20T14:46:30.719Z,77.78
2022-12-20T14:49:19.865Z,78.22
2022-12-20T14:51:47.166Z,78.48
2022-12-20T14:55:05.729Z,77.97
2022-12-20T14:57:24.729Z,78.09
2022-12-20T15:00:18.215Z,78.98
2022-12-20T15:03:00.759Z,78.85
2022-12-20T15:05:40.774Z,77.99
2022-12-20T15:08:16.548Z,78.13
2022-12-20T15:10:50.981Z,79.24
2022-12-20T15:13:20.629Z,78.62
2022-12-20T15:15:48.273Z,78.61
2022-12-20T15:18:18.480Z,77.80
2022-12-20T15:20:50.212Z,78.23
2022-12-20T15:23:19.764Z,77.21
2022-12-20T15:25:47.343Z,76.88
2022-12-20T15:28:20.305Z,77.14
2022-12-20T15:30:49.022Z,77.18
2022-12-20T15:33:22.447Z,77.17
2022-12-20T15:35:50.143Z,77.54
2022-12-20T15:38:35.044Z,76.18
2022-12-20T15:41:24.314Z,75.61
2022-12-20T15:44:00.070Z,76.51
2022-12-20T15:46:27.434Z,76.64
2022-12-20T15:48:54.767Z,76.11
2022-12-20T15:51:31.872Z,76.86
2022-12-20T15:54:00.672Z,76.60
2022-12-20T15:56:28.199Z,77.22
2022-12-20T15:58:55.456Z,78.12
2022-12-20T16:01:40.339Z,76.51
2022-12-20T16:04:12.550Z,75.77
2022-12-20T16:06:39.757Z,75.27
2022-12-20T16:09:06.731Z,76.27
2022-12-20T16:11:33.949Z,75.00
2022-12-20T16:14:00.833Z,76.54
2022-12-20T16:16:36.586Z,76.38
2022-12-20T16:19:04.046Z,75.25
2022-12-20T16:21:34.014Z,74.66
2022-12-20T16:24:00.989Z,74.99
2022-12-20T16:26:28.443Z,75.40
2022-12-20T16:28:56.983Z,73.64
2022-12-20T16:31:28.069Z,74.35
2022-12-20T16:33:55.880Z,74.35
2022-12-20T16:36:24.013Z,75.47
2022-12-20T16:38:52.036Z,75.86
2022-12-20T16:41:21.445Z,74.93
2022-12-20T16:43:49.107Z,75.05
2022-12-20T16:46:19.018Z,74.77
2022-12-20T16:48:47.041Z,74.84
2022-12-20T16:51:31.663Z,75.03
2022-12-20T16:54:21.723Z,73.95
2022-12-20T16:56:55.279Z,73.58
2022-12-20T16:59:25.459Z,74.11
2022-12-20T17:01:55.862Z,74.20
2022-12-20T17:04:23.696Z,73.66
2022-12-20T17:06:50.969Z,73.08
2022-12-20T17:12:05.673Z,73.07
2022-12-20T17:14:32.514Z,72.81
2022-12-20T17:17:01.778Z,72.39
2022-12-20T17:19:28.693Z,72.25
2022-12-20T17:24:40.372Z,71.85
2022-12-20T17:27:10.644Z,72.69
2022-12-20T17:29:37.560Z,72.27
2022-12-20T17:32:19.912Z,71.75
2022-12-20T17:34:46.838Z,72.36
2022-12-20T17:37:14.168Z,72.36
2022-12-20T17:39:41.130Z,73.12
2022-12-20T17:42:12.487Z,72.60
2022-12-20T17:44:39.400Z,73.06
2022-12-20T17:47:06.783Z,72.94
2022-12-20T17:49:33.734Z,72.07
2022-12-20T17:52:01.029Z,73.21
2022-12-20T17:54:34.864Z,73.20
2022-12-20T17:57:06.033Z,73.27
2022-12-20T17:59:32.968Z,73.47
2022-12-20T18:02:00.345Z,73.10
2022-12-20T18:04:28.183Z,73.03
2022-12-20T18:06:55.541Z,74.49
2022-12-20T18:09:22.520Z,75.17
2022-12-20T18:11:49.848Z,74.41
2022-12-20T18:14:17.537Z,73.92
2022-12-20T18:16:44.789Z,73.49
2022-12-20T18:19:16.632Z,73.54
2022-12-20T18:21:43.800Z,73.29
2022-12-20T18:24:12.415Z,72.27
2022-12-20T18:26:39.783Z,72.69
2022-12-20T18:29:06.711Z,70.95
2022-12-20T18:31:34.833Z,71.31
2022-12-20T18:34:03.278Z,70.28
2022-12-20T18:36:36.636Z,69.86
2022-12-20T18:39:06.678Z,69.14
2022-12-20T18:41:34.060Z,69.56
2022-12-20T18:44:03.602Z,69.94
2022-12-20T18:46:31.293Z,68.80
2022-12-20T18:49:01.043Z,67.68
2022-12-20T18:51:30.542Z,67.67
2022-12-20T18:53:58.738Z,68.51
2022-12-20T18:56:28.824Z,67.15
2022-12-20T18:58:57.925Z,67.63
2022-12-20T19:01:30.606Z,68.36
2022-12-20T19:04:00.512Z,67.73
2022-12-20T19:06:27.719Z,66.84
2022-12-20T19:08:54.613Z,66.07
2022-12-20T19:11:23.599Z,65.61
2022-12-20T19:13:51.524Z,64.89
2022-12-20T19:16:21.591Z,65.01
2022-12-20T19:18:48.817Z,64.80
2022-12-20T19:21:18.939Z,65.01
2022-12-20T19:23:49.611Z,63.98
2022-12-20T19:26:18.221Z,64.59
2022-12-20T19:28:47.094Z,65.05
2022-12-20T19:31:21.597Z,65.51
2022-12-20T19:33:50.368Z,65.28
2022-12-20T19:36:25.005Z,66.25
2022-12-20T19:38:57.958Z,65.86
2022-12-20T19:41:28.354Z,66.25
2022-12-20T19:43:56.644Z,65.72
2022-12-20T19:46:29.384Z,66.61
2022-12-20T19:48:58.433Z,66.43
2022-12-20T19:51:27.661Z,63.91
2022-12-20T19:53:55.984Z,62.14
2022-12-20T19:56:34.411Z,62.60
2022-12-20T19:59:02.415Z,63.37
2022-12-20T20:01:29.879Z,61.70
2022-12-20T20:03:59.111Z,60.81
2022-12-20T20:06:27.735Z,59.86
2022-12-20T20:08:57.810Z,59.59
2022-12-20T20:11:25.702Z,60.57
2022-12-20T20:13:52.810Z,59.05
2022-12-20T20:16:22.776Z,59.25
2022-12-20T20:18:50.165Z,58.83
2022-12-20T20:21:21.955Z,58.88
2022-12-20T20:23:51.162Z,58.27
2022-12-20T20:26:26.642Z,57.92
2022-12-20T20:28:54.072Z,59.58
2022-12-20T20:31:22.402Z,59.24
2022-12-20T20:33:50.239Z,59.48
2022-12-20T20:36:20.612Z,60.50
2022-12-20T20:38:48.099Z,60.37
2022-12-20T20:41:15.850Z,58.83
2022-12-20T20:43:43.710Z,58.86
2022-12-20T20:46:14.439Z,57.99
2022-12-20T20:48:42.929Z,55.61
2022-12-20T20:51:10.747Z,55.32
2022-12-20T20:53:37.989Z,54.17
2022-12-20T20:56:06.205Z,54.24
2022-12-20T20:58:34.287Z,54.19
2022-12-20T21:01:03.908Z,54.43
2022-12-20T21:03:32.027Z,55.05
2022-12-20T21:08:46.759Z,55.21
2022-12-20T21:11:14.312Z,54.15
2022-12-20T21:13:41.340Z,53.89
2022-12-20T21:16:13.577Z,53.29
2022-12-20T21:18:40.667Z,53.23
2022-12-20T21:21:13.040Z,52.42
2022-12-20T21:23:44.413Z,52.95
2022-12-20T21:26:12.045Z,52.51
2022-12-20T21:28:40.638Z,52.43
2022-12-20T21:31:11.110Z,51.80
2022-12-20T21:33:38.546Z,52.29
2022-12-20T21:36:08.729Z,51.45
2022-12-20T21:38:35.644Z,51.21
2022-12-20T21:41:08.301Z,50.79
2022-12-20T21:43:35.309Z,50.56
2022-12-20T21:46:02.446Z,50.52
2022-12-20T21:48:30.533Z,50.78
2022-12-20T21:51:02.806Z,50.36
2022-12-20T21:53:31.203Z,49.93
2022-12-20T21:55:59.997Z,50.21
2022-12-20T21:58:29.060Z,50.04
2022-12-20T22:00:57.210Z,49.80
2022-12-20T22:03:25.519Z,49.25
2022-12-20T22:05:58.437Z,49.93
2022-12-20T22:08:27.064Z,50.38
2022-12-20T22:11:11.580Z,49.85
2022-12-20T22:13:41.844Z,49.14
2022-12-20T22:16:12.596Z,49.02
2022-12-20T22:18:40.833Z,48.81
2022-12-20T22:21:11.063Z,48.32
2022-12-20T22:23:38.433Z,47.86
2022-12-20T22:26:11.605Z,48.07
2022-12-20T22:28:40.213Z,48.50
2022-12-20T22:31:09.357Z,48.01
2022-12-20T22:33:37.608Z,47.86
2022-12-20T22:36:06.127Z,47.48
2022-12-20T22:38:33.088Z,47.99
2022-12-20T22:41:30.411Z,48.33
2022-12-20T22:43:59.346Z,49.27
2022-12-20T22:49:17.614Z,48.92
2022-12-20T22:51:49.295Z,48.13
2022-12-20T22:54:26.206Z,48.03
2022-12-20T22:56:53.311Z,47.86
2022-12-20T22:59:20.519Z,48.73
2022-12-20T23:01:47.783Z,48.47
2022-12-20T23:04:14.711Z,48.71
2022-12-20T23:06:43.087Z,49.04
2022-12-20T23:09:10.057Z,48.61
2022-12-20T23:11:55.592Z,48.76
2022-12-20T23:14:41.625Z,49.56
2022-12-20T23:17:10.053Z,48.87
2022-12-20T23:19:56.348Z,48.89
2022-12-20T23:22:40.200Z,49.00
2022-12-20T23:25:13.586Z,49.52
2022-12-20T23:27:42.519Z,49.12
2022-12-20T23:30:11.946Z,50.11
2022-12-20T23:32:39.128Z,49.31
2022-12-20T23:35:12.211Z,50.50
2022-12-20T23:37:40.424Z,50.54
2022-12-20T23:40:07.975Z,50.47
2022-12-20T23:42:35.093Z,49.89
2022-12-20T23:45:02.025Z,49.65
2022-12-20T23:47:29.171Z,50.16
2022-12-20T23:49:55.997Z,49.03
2022-12-20T23:52:23.413Z,50.06
2022-12-20T23:54:50.310Z,50.23
2022-12-20T23:57:17.506Z,50.08
2022-12-20T23:59:44.396Z,49.98
